Aérodrome :
LOGIN :

S'inscrire | Disclaimer

   EN    FR    IT 

 










Légende :    VFR   VFR Marginal   IFR   IFR Intensif   IFR Très Intensif
Visi : 
Plafond : 
>= 8 km
>= 3000ft
5 à 8 km
1000 à 3000 ft
1500m à 5 km
500 à 1000 ft
800 à 1500m
200 à 500 ft
< 800m
< 200 ft
Symboles :   Orages  Brouillard  Fortes neiges  Fortes précipitations  Vent > 20 kt
SIGMETs :   Divers  Orages  Givrage  Turbulence  Onde Orograph.  Cendres Volcan.






- Altitude de l'aérodrome : 423 ft
- Code IATA : PIS


LFBI - Poitiers

DERNIER METAR :
  • 281130Z AUTO 21010KT CAVOK 10/09 Q1014 TEMPO VRB15G35KT 2500 SHRA BKN030CB

METARs EXPIRÉS :
  • 281100Z AUTO 21011KT CAVOK 10/09 Q1015 TEMPO VRB15G25KT 3000 SHRA SCT012 BKN020CB
  • 281030Z AUTO 22010KT 9999 ///TCU 09/09 Q1015 TEMPO VRB15G25KT 3000 SHRA SCT012 BKN020CB
  • 281000Z AUTO 22010KT 9999 FEW007/// BKN048/// BKN058/// ///TCU 09/09 Q1015 TEMPO VRB15G25KT 3000 SHRA SCT012 BKN020CB
  • 280930Z AUTO 22008KT 9999 FEW036/// SCT044/// ///TCU 09/09 Q1015 TEMPO VRB15G25KT 3000 SHRA SCT012 BKN020CB
  • 280900Z AUTO 21008KT 8000 BKN002/// 08/08 Q1015 TEMPO VRB15G25KT 3000 SHRA SCT012 BKN020CB

TAF TAF LFBI
Valide du 28 à 12h jusqu'au 29 à 12h UTC


281100Z 2812/2912 22010KT 9999 SCT030TCU
TEMPO 2812/2818 4500 -SHRA BKN030TCU SCT040CB
PROB40
TEMPO 2812/2815 VRB15G35KT 2500 SHRA BKN030CB
BECMG 2822/2824 24003KT 3000 BR
TEMPO 2907/2912 0500 FG VV///



MET'MAP, la Météo Aéronautique d'un coup d'oeil ! - Copyright ORBIFLY Décembre 2007 - Disclaimer

ORBIFLY MET'MAP TEAM :

Programmation & Développement : Alexandra Zaïnal
Sur une idée originale de : Baudouin d'Aumeries
Soutien technique & logistique : Manuel Goepfert
Assistance : Marc-Olivier Méhu




SOURCES & CREDITS :

   NOAA